Time;durP1;ratioP1;P1;durP2;ratioP2;P2;SDS_P1;SDS_P2;PMS_P1;PMS_P2;Temp;Humidity;BMP_temperature;BMP_pressure;BME280_temperature;BME280_humidity;BME280_pressure;Samples;Min_cycle;Max_cycle;Signal;HPM_P1;HPM_P2
2022/01/26 00:07:32;;;;;;;8.68;4.03;;;;;;;-7.11;81.40;101763.28;5072552;28;20127;-63
2022/01/26 00:09:57;;;;;;;6.67;3.63;;;;;;;-7.14;81.64;101761.59;5071983;28;20131;-61
2022/01/26 00:12:22;;;;;;;7.60;3.67;;;;;;;-7.16;82.34;101765.09;5072012;28;20045;-61
2022/01/26 00:14:48;;;;;;;8.07;4.93;;;;;;;-7.21;81.92;101760.84;5072022;28;20062;-61
2022/01/26 00:17:14;;;;;;;8.97;3.90;;;;;;;-7.22;82.31;101764.31;5072182;28;20032;-60
2022/01/26 00:19:53;;;;;;;7.90;5.40;;;;;;;-7.20;82.06;101765.16;5071951;28;20044;-63
2022/01/26 00:25:43;;;;;;;11.02;4.25;;;;;;;-7.20;83.01;101752.19;4990274;28;20038;-61
2022/01/26 00:38:52;;;;;;;5.38;4.15;;;;;;;-7.27;81.53;101766.09;5072557;28;20052;-63
2022/01/26 00:41:31;;;;;;;4.97;4.37;;;;;;;-7.32;82.16;101757.56;5072311;28;20380;-61
2022/01/26 00:43:58;;;;;;;8.95;5.03;;;;;;;-7.43;82.96;101746.53;5072010;28;20056;-62
2022/01/26 00:46:26;;;;;;;13.60;6.25;;;;;;;-7.37;82.92;101751.63;5071515;28;20087;-62
2022/01/26 00:48:52;;;;;;;6.82;3.55;;;;;;;-7.26;82.41;101767.81;5071805;28;20512;-61
2022/01/26 00:51:19;;;;;;;9.02;4.50;;;;;;;-7.18;82.86;101773.75;5071878;28;20040;-62
2022/01/26 00:53:49;;;;;;;12.55;4.35;;;;;;;-7.25;81.87;101754.00;5071697;28;20028;-62
2022/01/26 00:56:15;;;;;;;9.52;4.65;;;;;;;-7.20;82.19;101767.72;5071666;28;20043;-63
2022/01/26 00:58:42;;;;;;;9.35;4.55;;;;;;;-7.21;82.08;101760.00;5071705;28;20067;-63
2022/01/26 01:01:08;;;;;;;9.60;4.87;;;;;;;-7.16;81.71;101763.34;5071552;28;20036;-62
2022/01/26 01:03:37;;;;;;;9.87;4.43;;;;;;;-7.36;81.61;101730.03;5071906;28;20041;-60
2022/01/26 01:06:10;;;;;;;7.30;4.18;;;;;;;-7.16;82.04;101772.84;5071889;28;20051;-63
2022/01/26 01:08:37;;;;;;;8.35;3.83;;;;;;;-7.23;81.35;101766.91;5071826;28;20081;-62
2022/01/26 01:11:03;;;;;;;9.75;4.25;;;;;;;-7.24;81.67;101758.28;5071542;28;20037;-62
2022/01/26 01:13:38;;;;;;;7.30;3.67;;;;;;;-7.22;81.67;101763.47;5071780;28;20403;-62
2022/01/26 01:16:06;;;;;;;6.30;4.15;;;;;;;-7.20;81.84;101762.56;5071767;28;20043;-61
2022/01/26 01:31:30;;;;;;;8.07;3.40;;;;;;;-7.34;81.35;101748.97;5071474;28;20115;-64
2022/01/26 01:33:56;;;;;;;8.65;4.50;;;;;;;-7.46;82.25;101732.81;5071523;28;20525;-62
2022/01/26 01:36:22;;;;;;;3.90;3.50;;;;;;;-7.43;81.94;101736.19;5071933;28;20068;-62
2022/01/26 01:38:48;;;;;;;9.43;4.53;;;;;;;-7.49;82.09;101728.53;5071351;28;20032;-62
2022/01/26 01:41:13;;;;;;;10.10;5.07;;;;;;;-7.52;82.33;101729.44;5071362;28;20483;-63
2022/01/26 01:43:39;;;;;;;5.37;4.00;;;;;;;-7.53;82.37;101716.50;5071307;28;20515;-61
2022/01/26 01:46:05;;;;;;;6.67;3.23;;;;;;;-7.39;83.21;101735.25;5071179;28;20039;-62
2022/01/26 01:48:33;;;;;;;6.90;3.55;;;;;;;-7.35;82.41;101718.81;5073181;28;20114;-63
2022/01/26 01:51:05;;;;;;;5.30;3.80;;;;;;;-7.32;82.41;101716.16;5074901;28;20147;-63
2022/01/26 01:53:39;;;;;;;11.70;3.80;;;;;;;-7.38;82.33;101700.75;5074840;28;20406;-60
2022/01/26 01:56:06;;;;;;;6.63;4.20;;;;;;;-7.40;82.85;101701.66;5075161;28;20055;-62
2022/01/26 01:58:32;;;;;;;7.25;4.03;;;;;;;-7.38;82.11;101716.25;5074696;28;20036;-64
2022/01/26 02:00:58;;;;;;;7.40;3.90;;;;;;;-7.38;82.25;101726.63;5074854;28;20051;-60
2022/01/26 02:03:24;;;;;;;5.77;4.73;;;;;;;-7.82;82.54;101658.34;5074784;28;20479;-62
2022/01/26 02:05:50;;;;;;;11.38;4.35;;;;;;;-7.37;82.61;101725.72;5074898;28;20032;-62
2022/01/26 02:08:16;;;;;;;7.20;3.60;;;;;;;-7.54;82.25;101692.38;5074784;28;20089;-61
2022/01/26 02:10:42;;;;;;;12.47;6.70;;;;;;;-7.43;82.36;101712.91;5074495;28;20499;-63
2022/01/26 02:13:33;;;;;;;10.05;4.72;;;;;;;-7.42;82.45;101719.78;5074268;28;20449;-61
2022/01/26 03:02:10;;;;;;;5.93;4.07;;;;;;;-7.52;81.80;101702.69;5073621;28;20520;-61
2022/01/26 03:04:46;;;;;;;12.82;4.68;;;;;;;-7.52;81.62;101706.16;5073952;28;20048;-61
2022/01/26 03:07:19;;;;;;;10.65;4.88;;;;;;;-7.56;82.09;101698.44;5073492;28;20033;-60
2022/01/26 03:09:58;;;;;;;8.98;4.72;;;;;;;-7.55;81.70;101702.75;5073245;28;20040;-62
2022/01/26 03:12:33;;;;;;;8.10;5.28;;;;;;;-7.70;81.83;101690.06;5073613;28;20036;-60
2022/01/26 03:15:07;;;;;;;5.93;4.88;;;;;;;-7.69;82.66;101699.53;5073736;28;20491;-61
2022/01/26 03:20:10;;;;;;;7.00;5.10;;;;;;;-7.69;82.82;101699.53;5072951;28;20044;-62
2022/01/26 03:35:49;;;;;;;;;;;;;;;-7.70;82.91;101692.66;5073811;28;20040;-60
2022/01/26 03:38:23;;;;;;;18.17;6.50;;;;;;;-7.75;83.23;101676.38;5073232;28;19967;-60
2022/01/26 03:40:58;;;;;;;16.42;7.05;;;;;;;-7.62;83.56;101678.72;5072585;28;20051;-60
2022/01/26 03:43:23;;;;;;;21.05;6.68;;;;;;;-7.63;83.43;101668.41;5072978;28;20037;-63
2022/01/26 03:45:49;;;;;;;27.57;7.57;;;;;;;-7.79;83.88;101654.03;5072922;28;20055;-60
2022/01/26 03:48:17;;;;;;;36.80;7.50;;;;;;;-7.58;84.49;101666.56;5072519;28;20518;-61
2022/01/26 03:50:43;;;;;;;25.20;7.57;;;;;;;-7.41;84.90;101674.06;5072439;28;20093;-62
2022/01/26 03:53:08;;;;;;;24.73;7.47;;;;;;;-7.30;84.53;101666.94;5072887;28;20115;-62
2022/01/26 03:55:34;;;;;;;25.37;8.20;;;;;;;-7.12;84.40;101669.22;5072683;28;20051;-60
2022/01/26 03:57:59;;;;;;;16.03;7.47;;;;;;;-7.06;83.70;101657.88;5072403;28;20118;-62
2022/01/26 04:00:25;;;;;;;15.90;6.93;;;;;;;-7.01;83.52;101666.41;5072641;28;20036;-63
2022/01/26 04:02:51;;;;;;;21.08;6.70;;;;;;;-7.00;83.15;101655.19;5072511;28;20127;-61
2022/01/26 04:05:16;;;;;;;15.10;6.77;;;;;;;-6.91;83.20;101661.06;5072400;28;20554;-62
2022/01/26 04:07:43;;;;;;;14.40;6.73;;;;;;;-6.94;83.11;101655.06;5072295;28;20044;-62
2022/01/26 04:10:30;;;;;;;14.23;5.97;;;;;;;-6.90;83.14;101648.97;5072147;28;20035;-61
2022/01/26 04:12:55;;;;;;;25.17;6.45;;;;;;;-6.90;83.35;101659.31;5071891;28;20151;-62
2022/01/26 04:15:27;;;;;;;13.00;5.50;;;;;;;-6.87;83.23;101646.31;5072452;28;20032;-63
2022/01/26 04:17:52;;;;;;;17.58;6.65;;;;;;;-6.91;82.86;101635.16;5071828;28;20034;-65
2022/01/26 04:20:18;;;;;;;7.10;4.83;;;;;;;-6.88;82.78;101637.69;5071843;28;20028;-65
2022/01/26 04:22:53;;;;;;;15.02;7.75;;;;;;;-6.85;82.92;101628.13;5072030;28;20125;-63
2022/01/26 04:25:23;;;;;;;14.02;4.72;;;;;;;-6.94;81.86;101603.25;5072109;28;20119;-62
2022/01/26 04:27:52;;;;;;;10.88;5.68;;;;;;;-6.79;82.12;101628.88;5071964;28;20521;-61
2022/01/26 04:30:17;;;;;;;;;;;;;;;-6.60;82.24;101650.91;5072317;28;20033;-62
2022/01/26 04:32:43;;;;;;;16.23;5.33;;;;;;;-6.59;81.86;101634.50;5054240;28;19928;-62
2022/01/26 04:35:09;;;;;;;11.93;7.13;;;;;;;-6.48;82.42;101639.44;5071812;28;20075;-64
2022/01/26 04:38:10;;;;;;;19.45;8.00;;;;;;;-6.49;81.96;101624.75;5071995;28;20032;-62
2022/01/26 04:40:36;;;;;;;15.10;5.38;;;;;;;-6.37;82.64;101639.19;5071183;28;20050;-61
2022/01/26 04:43:07;;;;;;;21.55;6.88;;;;;;;-6.43;82.52;101631.53;5071723;28;20582;-62
2022/01/26 04:45:33;;;;;;;12.60;6.05;;;;;;;-6.42;82.34;101641.03;5071774;28;20220;-61
2022/01/26 04:48:02;;;;;;;18.07;7.57;;;;;;;-6.40;82.33;101634.06;5071857;28;20062;-61
2022/01/26 04:50:28;;;;;;;20.40;7.65;;;;;;;-6.39;82.57;101622.81;5071697;28;20522;-62
2022/01/26 04:52:53;;;;;;;16.77;7.07;;;;;;;-6.36;82.22;101633.09;5071782;28;20048;-62
2022/01/26 04:55:18;;;;;;;15.80;7.57;;;;;;;-6.30;82.26;101627.81;5071772;28;20037;-63
2022/01/26 04:57:44;;;;;;;22.87;7.27;;;;;;;-6.28;81.80;101626.88;5071574;28;20032;-62
2022/01/26 05:00:10;;;;;;;19.47;7.50;;;;;;;-6.28;82.11;101628.63;5071171;28;20028;-63
2022/01/26 05:02:36;;;;;;;17.58;8.88;;;;;;;-6.61;81.80;101586.19;5071306;28;20033;-63
2022/01/26 05:05:02;;;;;;;22.13;8.90;;;;;;;-6.41;81.97;101629.78;5071423;28;20047;-62
2022/01/26 05:07:28;;;;;;;23.17;9.20;;;;;;;-6.50;82.90;101609.25;5071489;28;20044;-62
2022/01/26 05:09:54;;;;;;;25.03;12.40;;;;;;;-6.41;82.56;101619.41;5071520;28;20032;-62
2022/01/26 05:12:19;;;;;;;19.80;8.53;;;;;;;-6.36;82.08;101617.56;5071207;28;20097;-63
2022/01/26 05:14:47;;;;;;;21.57;8.07;;;;;;;-6.50;82.37;101593.72;5071320;28;20122;-61
2022/01/26 05:17:14;;;;;;;22.50;8.43;;;;;;;-6.36;82.31;101627.94;5071562;28;20033;-63
2022/01/26 05:19:39;;;;;;;29.88;8.52;;;;;;;-6.38;82.17;101619.34;5071626;28;20037;-62
2022/01/26 05:22:06;;;;;;;23.77;8.13;;;;;;;-6.33;82.14;101627.88;5071665;28;20032;-62
2022/01/26 05:24:31;;;;;;;20.00;7.90;;;;;;;-6.35;82.55;101625.31;5075392;28;20028;-63
2022/01/26 05:26:57;;;;;;;25.90;9.37;;;;;;;-6.27;82.63;101628.59;5074720;28;20444;-62
2022/01/26 05:29:22;;;;;;;22.97;8.53;;;;;;;-6.20;82.22;101623.25;5074988;28;20519;-62
2022/01/26 05:31:48;;;;;;;29.17;11.20;;;;;;;-6.17;82.31;101623.19;5075170;28;20047;-63
2022/01/26 05:34:14;;;;;;;28.53;9.53;;;;;;;-6.20;81.57;101613.75;5075093;28;20035;-62
2022/01/26 05:36:40;;;;;;;25.37;10.03;;;;;;;-6.19;82.11;101617.19;5075218;28;20040;-62
2022/01/26 05:39:06;;;;;;;28.63;10.23;;;;;;;-6.08;81.95;101623.81;5075146;28;20047;-62
2022/01/26 05:41:31;;;;;;;27.35;10.55;;;;;;;-6.04;81.81;101609.91;5074833;28;20406;-64
2022/01/26 05:43:57;;;;;;;25.07;9.37;;;;;;;-6.10;82.30;101593.63;5074602;28;20036;-62
2022/01/26 05:46:45;;;;;;;25.43;9.57;;;;;;;-5.99;82.13;101596.84;5074893;28;20395;-63
2022/01/26 05:49:13;;;;;;;23.33;9.82;;;;;;;-5.88;82.37;101612.09;5075009;28;20040;-60
2022/01/26 05:51:39;;;;;;;25.40;9.23;;;;;;;-5.92;82.22;101606.16;5074758;28;20084;-60
2022/01/26 05:54:07;;;;;;;25.95;9.75;;;;;;;-5.90;82.22;101604.38;5074872;28;20193;-61
2022/01/26 05:56:33;;;;;;;23.33;9.18;;;;;;;-5.78;82.35;101609.25;5074580;28;20059;-62
2022/01/26 05:58:59;;;;;;;22.10;11.03;;;;;;;-5.89;81.62;101561.13;5074307;28;20101;-62
2022/01/26 06:01:25;;;;;;;49.63;13.33;;;;;;;-5.65;81.50;101599.41;5074609;28;20124;-65
2022/01/26 06:03:50;;;;;;;32.10;13.25;;;;;;;-5.62;81.28;101591.53;5074665;28;20028;-61
2022/01/26 06:06:41;;;;;;;35.90;13.00;;;;;;;-5.55;81.22;101606.03;5074923;28;20052;-62
2022/01/26 06:09:07;;;;;;;31.93;10.47;;;;;;;-5.46;80.81;101620.56;5074770;28;20052;-62
2022/01/26 06:11:32;;;;;;;31.33;10.83;;;;;;;-5.53;80.70;101601.66;5074445;28;20412;-63
2022/01/26 06:13:58;;;;;;;30.80;13.03;;;;;;;-5.43;81.36;101613.53;5074605;28;20123;-61
2022/01/26 06:16:24;;;;;;;34.67;12.13;;;;;;;-5.61;80.96;101585.44;5074444;28;20044;-62
2022/01/26 06:18:50;;;;;;;53.25;13.27;;;;;;;-5.52;80.45;101613.75;5074423;28;20028;-63
2022/01/26 06:21:15;;;;;;;29.20;9.33;;;;;;;-5.59;81.18;101616.56;5074211;28;20040;-62
2022/01/26 06:23:42;;;;;;;25.73;9.67;;;;;;;-5.64;81.55;101608.88;5074152;28;20032;-63
2022/01/26 06:26:07;;;;;;;20.08;8.60;;;;;;;-5.59;80.67;101601.84;5073997;28;20431;-61
2022/01/26 06:28:33;;;;;;;27.83;8.23;;;;;;;-5.42;81.17;101619.56;5074566;28;20040;-61
2022/01/26 06:31:03;;;;;;;27.43;9.03;;;;;;;-5.47;80.72;101605.88;5074376;28;20037;-61
2022/01/26 06:33:30;;;;;;;25.48;7.75;;;;;;;-5.63;80.63;101574.25;5073826;28;20753;-65
2022/01/26 06:35:57;;;;;;;22.45;10.07;;;;;;;-5.42;80.39;101598.81;5073021;28;20041;-61
2022/01/26 06:38:24;;;;;;;21.60;10.73;;;;;;;-5.32;80.34;101610.63;5074293;28;20533;-62
2022/01/26 06:40:51;;;;;;;19.60;8.50;;;;;;;-5.45;80.24;101575.53;5074166;28;20036;-63
2022/01/26 06:43:17;;;;;;;14.32;7.45;;;;;;;-5.19;79.86;101604.25;5074129;28;20040;-62
2022/01/26 06:45:54;;;;;;;22.50;9.63;;;;;;;-5.12;79.92;101602.31;5073881;28;20032;-65
2022/01/26 06:51:00;;;;;;;19.50;7.38;;;;;;;-4.99;79.25;101594.13;5073861;28;20083;-62
2022/01/26 06:53:27;;;;;;;15.32;6.97;;;;;;;-4.99;80.00;101593.28;5073718;28;20127;-63
2022/01/26 06:55:52;;;;;;;22.50;9.07;;;;;;;-5.06;80.07;101586.56;5073588;28;20407;-63
2022/01/26 06:58:18;;;;;;;20.00;9.50;;;;;;;-5.06;80.16;101591.75;5073195;28;20040;-63
2022/01/26 07:00:43;;;;;;;18.00;7.93;;;;;;;-5.19;80.28;101580.00;5054731;28;20032;-66
2022/01/26 07:03:09;;;;;;;18.50;8.90;;;;;;;-5.20;80.57;101588.69;5055514;28;20511;-63
2022/01/26 07:05:35;;;;;;;20.60;8.07;;;;;;;-5.35;80.35;101570.03;5073505;28;20032;-63
2022/01/26 07:08:02;;;;;;;18.77;7.80;;;;;;;-5.32;80.54;101580.34;5073502;28;20064;-65
2022/01/26 07:10:29;;;;;;;14.10;8.00;;;;;;;-5.25;80.35;101595.75;5073126;28;20086;-64
2022/01/26 07:12:54;;;;;;;17.60;7.75;;;;;;;-5.20;80.57;101583.50;5073350;28;20029;-67
2022/01/26 07:23:40;;;;;;;12.93;7.10;;;;;;;-5.14;80.29;101565.16;5072580;28;20537;-65
2022/01/26 07:26:06;;;;;;;16.47;6.10;;;;;;;-5.09;80.11;101576.25;5072289;28;20040;-63
2022/01/26 07:28:37;;;;;;;11.60;5.37;;;;;;;-5.10;80.79;101579.75;5072872;28;20036;-65
2022/01/26 07:31:04;;;;;;;13.82;6.68;;;;;;;-5.23;80.59;101557.59;5072923;28;20043;-63
2022/01/26 07:33:30;;;;;;;12.10;6.32;;;;;;;-5.22;80.55;101560.16;5054991;28;20079;-63
2022/01/26 07:35:56;;;;;;;10.82;5.80;;;;;;;-5.18;81.11;101569.59;5072883;28;20108;-64
2022/01/26 07:38:22;;;;;;;12.43;5.93;;;;;;;-5.27;81.50;101548.19;5072298;28;20048;-68
2022/01/26 07:40:47;;;;;;;9.33;5.00;;;;;;;-5.24;81.28;101561.09;5055302;28;20094;-68
2022/01/26 07:43:13;;;;;;;11.97;7.13;;;;;;;-5.24;81.37;101563.69;5054965;28;20044;-69
2022/01/26 07:45:38;;;;;;;8.50;4.77;;;;;;;-5.28;82.14;101564.66;5072477;28;20039;-69
2022/01/26 07:48:08;;;;;;;9.20;5.87;;;;;;;-5.35;81.99;101553.59;5072510;28;20064;-67
2022/01/26 07:50:34;;;;;;;12.25;5.72;;;;;;;-5.40;82.24;101539.91;5072537;28;20044;-67
2022/01/26 07:53:01;;;;;;;12.30;6.40;;;;;;;-5.38;82.23;101538.13;5072331;28;20102;-68
2022/01/26 07:55:26;;;;;;;9.90;5.13;;;;;;;-5.32;82.78;101541.38;5054115;28;20433;-69
2022/01/26 07:57:54;;;;;;;9.10;4.30;;;;;;;-5.21;82.23;101545.41;5072284;28;20047;-70
2022/01/26 08:00:19;;;;;;;11.07;4.30;;;;;;;-5.12;81.80;101540.84;5072448;28;20039;-66
2022/01/26 08:02:46;;;;;;;7.63;4.67;;;;;;;-5.00;81.64;101557.81;5073126;28;20443;-68
2022/01/26 08:05:13;;;;;;;5.57;4.85;;;;;;;-4.88;81.26;101559.22;5072995;28;20499;-66
2022/01/26 08:07:38;;;;;;;11.82;5.93;;;;;;;-4.80;81.27;101552.88;5072679;28;20499;-73
2022/01/26 08:10:07;;;;;;;8.63;5.15;;;;;;;-4.62;81.19;101553.25;5071805;28;20560;-73
2022/01/26 08:12:32;;;;;;;15.32;6.75;;;;;;;-4.56;80.61;101555.63;5072160;28;20040;-67
2022/01/26 08:14:58;;;;;;;8.43;5.73;;;;;;;-4.46;80.66;101562.25;5072109;28;20112;-65
2022/01/26 08:17:24;;;;;;;12.63;5.37;;;;;;;-4.42;80.05;101561.25;5072507;28;20040;-69
2022/01/26 08:19:52;;;;;;;11.07;4.90;;;;;;;-4.37;79.46;101556.75;5072194;28;20044;-67
2022/01/26 08:22:19;;;;;;;8.15;4.53;;;;;;;-4.48;79.73;101548.44;5053937;28;20089;-67
2022/01/26 08:24:46;;;;;;;12.18;6.32;;;;;;;-4.55;79.47;101552.13;5072115;28;20041;-77
2022/01/26 08:27:13;;;;;;;11.05;4.60;;;;;;;-4.56;80.19;101558.25;5072206;28;20112;-72
2022/01/26 08:29:46;;;;;;;10.80;5.10;;;;;;;-4.64;79.67;101534.22;5072542;28;20052;-71
2022/01/26 08:32:12;;;;;;;10.43;5.03;;;;;;;-4.67;80.36;101538.59;5072000;28;20040;-70
2022/01/26 08:34:37;;;;;;;6.80;4.07;;;;;;;-4.71;80.70;101525.75;5054777;28;20440;-72
2022/01/26 08:37:04;;;;;;;10.03;5.40;;;;;;;-4.54;79.83;101551.25;5072693;28;20029;-72
2022/01/26 08:39:29;;;;;;;10.52;5.07;;;;;;;-4.52;79.89;101552.03;5072438;28;20036;-70
2022/01/26 08:41:55;;;;;;;11.63;4.53;;;;;;;-4.61;79.97;101515.94;5072843;28;20537;-72
2022/01/26 08:44:21;;;;;;;11.93;4.80;;;;;;;-4.22;79.41;101545.88;5072442;28;20032;-76
2022/01/26 08:46:47;;;;;;;8.40;5.78;;;;;;;-4.08;79.67;101548.00;5071846;28;20475;-73
2022/01/26 08:49:16;;;;;;;8.53;4.83;;;;;;;-3.96;78.98;101558.03;5071003;28;20135;-74
2022/01/26 08:51:42;;;;;;;;;;;;;;;-3.81;79.26;101556.66;5071467;28;20045;-72
2022/01/26 08:54:10;;;;;;;14.03;5.93;;;;;;;-3.84;78.80;101541.16;5070625;28;19959;-71
2022/01/26 08:56:36;;;;;;;8.77;3.83;;;;;;;-3.71;78.27;101546.81;5071087;28;20029;-69
2022/01/26 08:59:03;;;;;;;7.45;4.70;;;;;;;-3.73;78.15;101525.19;5073801;28;20043;-69
2022/01/26 09:01:28;;;;;;;8.48;5.10;;;;;;;-3.64;78.16;101530.91;5074901;28;20120;-69
2022/01/26 09:03:54;;;;;;;7.17;4.97;;;;;;;-3.58;78.11;101533.28;5075827;28;20451;-72
2022/01/26 09:06:19;;;;;;;7.43;4.87;;;;;;;-3.62;77.34;101516.09;5076243;28;20032;-71
2022/01/26 09:08:50;;;;;;;6.60;4.50;;;;;;;-3.86;77.70;101493.50;5076316;28;20033;-76
2022/01/26 09:11:22;;;;;;;14.65;6.28;;;;;;;-3.62;77.94;101525.66;5075978;28;20040;-74
2022/01/26 09:13:55;;;;;;;11.68;5.78;;;;;;;-3.53;77.79;101530.53;5075831;28;20086;-71
2022/01/26 09:16:23;;;;;;;20.98;7.60;;;;;;;-3.42;77.48;101514.53;5042233;28;20119;-72
2022/01/26 09:18:52;;;;;;;27.40;11.05;;;;;;;-3.20;77.31;101528.47;5075545;28;20091;-72
2022/01/26 09:21:18;;;;;;;;;;;;;;;-3.08;77.72;101515.00;5075972;28;20036;-71
2022/01/26 09:23:44;;;;;;;23.52;13.93;;;;;;;-3.12;75.97;101516.03;5075507;28;19927;-72
2022/01/26 09:26:10;;;;;;;23.33;12.60;;;;;;;-3.22;76.13;101515.50;5075548;28;20036;-71
2022/01/26 09:28:35;;;;;;;19.23;9.77;;;;;;;-3.26;76.03;101495.66;5075598;28;20035;-70
2022/01/26 09:31:01;;;;;;;17.47;11.23;;;;;;;-3.20;76.71;101497.19;5075193;28;20064;-69
2022/01/26 09:33:27;;;;;;;28.47;11.33;;;;;;;-3.06;76.47;101505.34;5075419;28;20082;-71
2022/01/26 09:35:54;;;;;;;14.50;10.43;;;;;;;-3.03;75.66;101489.59;5075403;28;20563;-71
2022/01/26 09:38:20;;;;;;;25.67;12.40;;;;;;;-2.98;75.19;101492.03;5074984;28;20044;-71
2022/01/26 09:40:49;;;;;;;36.65;11.38;;;;;;;-2.93;75.13;101484.88;5075276;28;20043;-70
2022/01/26 09:43:17;;;;;;;15.45;9.68;;;;;;;-3.16;75.51;101457.13;5075303;28;20123;-71
2022/01/26 09:45:44;;;;;;;13.02;10.27;;;;;;;-3.01;74.51;101482.56;5075148;28;20040;-70
2022/01/26 09:48:12;;;;;;;24.77;11.52;;;;;;;-3.07;74.90;101482.81;5074964;28;20511;-70
2022/01/26 09:50:44;;;;;;;16.38;10.15;;;;;;;-2.99;75.04;101482.53;5075364;28;20398;-70
2022/01/26 09:53:11;;;;;;;26.40;11.90;;;;;;;-3.20;73.88;101458.13;5074984;28;20427;-71
2022/01/26 09:55:46;;;;;;;21.40;10.00;;;;;;;-3.09;74.63;101476.81;5075826;28;20071;-75
2022/01/26 09:58:11;;;;;;;20.40;10.18;;;;;;;-3.16;74.18;101478.81;5057170;28;20510;-72
2022/01/26 10:00:37;;;;;;;15.80;9.70;;;;;;;-3.07;74.72;101502.81;5074446;28;20040;-64
2022/01/26 10:03:06;;;;;;;20.07;10.80;;;;;;;-3.29;74.97;101482.75;5075057;28;20499;-68
2022/01/26 10:05:44;;;;;;;15.70;10.98;;;;;;;-3.35;75.50;101493.41;5074587;28;20036;-69
2022/01/26 10:17:12;;;;;;;18.38;11.23;;;;;;;-3.46;75.08;101491.22;5074678;28;20548;-71
2022/01/26 10:19:19;;;;;;;14.82;10.75;;;;;;;-3.48;75.07;101507.75;5074164;28;20481;-68
2022/01/26 10:21:49;;;;;;;17.70;10.27;;;;;;;-3.50;75.45;101494.81;5074525;28;20036;-69
2022/01/26 10:24:16;;;;;;;21.23;12.30;;;;;;;-3.54;74.76;101497.56;5074270;28;20128;-70
2022/01/26 10:26:57;;;;;;;17.52;11.70;;;;;;;-3.48;75.72;101500.81;5074187;28;20036;-69
2022/01/26 10:29:23;;;;;;;25.40;12.60;;;;;;;-3.51;75.66;101508.72;5074441;28;20048;-71
2022/01/26 10:31:49;;;;;;;21.33;12.20;;;;;;;-3.48;75.83;101495.59;5056533;28;20044;-71
2022/01/26 10:34:18;;;;;;;17.77;10.63;;;;;;;-3.49;75.77;101486.09;5074848;28;20094;-68
2022/01/26 10:36:54;;;;;;;19.30;12.15;;;;;;;-3.47;75.45;101484.31;5074998;28;20088;-71
2022/01/26 10:39:35;;;;;;;22.70;12.05;;;;;;;-3.51;75.36;101493.09;5074208;28;20032;-72
2022/01/26 10:42:06;;;;;;;24.10;14.77;;;;;;;-3.67;76.15;101478.97;5074158;28;20131;-72
2022/01/26 10:44:43;;;;;;;26.27;13.43;;;;;;;-3.94;75.59;101427.88;5074174;28;20047;-71
2022/01/26 10:47:12;;;;;;;34.63;15.65;;;;;;;-3.63;75.87;101472.72;5072806;28;20133;-72
2022/01/26 10:54:48;;;;;;;24.15;13.27;;;;;;;-3.48;77.33;101461.75;5074299;28;20067;-75
2022/01/26 10:57:14;;;;;;;22.13;11.65;;;;;;;-3.49;77.57;101454.84;5073779;28;20044;-72
2022/01/26 10:59:43;;;;;;;19.50;11.67;;;;;;;-3.54;77.24;101450.72;5072533;28;20032;-72
2022/01/26 11:02:10;;;;;;;21.13;11.40;;;;;;;-3.45;77.32;101446.03;5073429;28;20128;-70
2022/01/26 11:04:38;;;;;;;26.23;11.93;;;;;;;-3.36;76.99;101444.00;5073734;28;20040;-76
2022/01/26 11:07:10;;;;;;;31.88;13.00;;;;;;;-3.22;77.47;101452.13;5075009;28;20036;-74
2022/01/26 11:09:38;;;;;;;31.58;14.20;;;;;;;-3.13;77.09;101446.59;5074401;28;20032;-75
2022/01/26 11:12:12;;;;;;;21.30;14.25;;;;;;;-3.19;76.47;101436.38;5073986;28;20041;-74
2022/01/26 11:14:46;;;;;;;20.35;13.23;;;;;;;-3.16;76.76;101438.88;5074387;28;20032;-74
2022/01/26 11:17:23;;;;;;;27.95;14.30;;;;;;;-3.08;76.30;101439.44;5073793;28;20441;-71
2022/01/26 11:19:49;;;;;;;30.92;16.23;;;;;;;-3.12;76.08;101432.66;5073629;28;20036;-73
2022/01/26 11:22:14;;;;;;;30.83;14.53;;;;;;;-3.01;75.37;101443.50;5055559;28;20044;-75
2022/01/26 11:24:48;;;;;;;27.27;17.80;;;;;;;-2.98;75.69;101434.69;5074137;28;20113;-75
2022/01/26 11:27:18;;;;;;;33.80;14.52;;;;;;;-2.99;75.54;101427.78;5055750;28;20068;-73
2022/01/26 11:29:48;;;;;;;30.65;15.30;;;;;;;-2.96;74.47;101428.50;5075143;28;20036;-76
2022/01/26 11:32:29;;;;;;;28.90;14.23;;;;;;;-3.09;75.11;101431.66;5075222;28;20040;-70
2022/01/26 11:34:55;;;;;;;38.30;17.98;;;;;;;-3.20;75.61;101408.63;5057320;28;20036;-70
2022/01/26 11:37:38;;;;;;;22.40;12.98;;;;;;;-3.27;75.02;101410.63;5073215;28;20036;-72
2022/01/26 11:45:26;;;;;;;31.77;13.07;;;;;;;-3.35;75.50;101414.44;5072780;28;20033;-72
2022/01/26 11:48:08;;;;;;;21.63;13.55;;;;;;;-3.33;75.53;101397.00;5072879;28;20094;-73
2022/01/26 11:50:35;;;;;;;23.17;11.25;;;;;;;-3.34;75.07;101403.09;5072717;28;20102;-71
2022/01/26 11:53:00;;;;;;;20.98;12.38;;;;;;;-3.39;74.89;101394.63;5073102;28;20039;-70
2022/01/26 11:55:34;;;;;;;24.40;12.87;;;;;;;-3.64;75.69;101372.09;5073076;28;20033;-71
2022/01/26 12:05:21;;;;;;;29.65;12.93;;;;;;;-3.53;76.08;101380.34;5058039;28;20041;-62
2022/01/26 12:07:48;;;;;;;25.50;13.75;;;;;;;-3.32;75.77;101393.47;5057665;28;20041;-74
2022/01/26 12:10:29;;;;;;;22.77;11.60;;;;;;;-3.29;74.61;101377.72;5056889;28;20052;-68
2022/01/26 12:13:24;;;;;;;18.25;10.88;;;;;;;-3.26;75.00;101388.03;5055992;28;20403;-73
2022/01/26 12:16:02;;;;;;;19.33;11.27;;;;;;;-3.43;74.71;101373.06;5051594;28;20048;-72
2022/01/26 12:33:02;;;;;;;24.27;11.73;;;;;;;-3.49;75.78;101374.13;5043792;28;20037;-67
2022/01/26 12:38:43;;;;;;;26.35;13.18;;;;;;;-3.59;74.80;101364.97;5052094;28;20037;-71
2022/01/26 12:41:21;;;;;;;20.85;10.43;;;;;;;-3.56;75.08;101380.47;5052308;28;20043;-71
2022/01/26 12:43:49;;;;;;;16.73;10.10;;;;;;;-3.55;75.01;101376.97;5052263;28;20487;-71
2022/01/26 12:46:21;;;;;;;23.02;12.13;;;;;;;-3.61;75.05;101366.78;5052200;28;20040;-67
2022/01/26 12:48:49;;;;;;;22.20;12.02;;;;;;;-3.71;75.81;101375.00;5045113;28;20484;-71
2022/01/26 12:51:15;;;;;;;22.40;9.98;;;;;;;-3.68;75.89;101375.75;5052602;28;20040;-73
2022/01/26 12:53:41;;;;;;;20.30;12.40;;;;;;;-3.65;75.87;101382.59;5053059;28;20051;-67
2022/01/26 12:56:12;;;;;;;17.80;9.03;;;;;;;-3.84;76.08;101346.81;5070474;28;20489;-68
2022/01/26 12:58:40;;;;;;;21.10;10.00;;;;;;;-3.86;75.40;101366.00;5056337;28;20059;-72
2022/01/26 13:01:19;;;;;;;16.25;7.93;;;;;;;-3.97;75.77;101349.94;5052086;28;20124;-69
2022/01/26 13:03:48;;;;;;;20.15;9.70;;;;;;;-3.75;76.49;101385.53;5067172;28;20051;-71
2022/01/26 13:06:23;;;;;;;19.17;8.05;;;;;;;-3.76;75.45;101362.13;5089928;28;20072;-66
2022/01/26 13:09:26;;;;;;;12.43;7.95;;;;;;;-3.63;76.25;101388.56;5090808;28;20150;-64
2022/01/26 13:11:59;;;;;;;13.15;8.55;;;;;;;-3.90;76.42;101359.22;5091018;28;20036;-75
2022/01/26 13:14:43;;;;;;;15.63;9.23;;;;;;;-3.82;77.13;101375.38;5093033;28;20060;-72
2022/01/26 13:31:21;;;;;;;11.82;8.48;;;;;;;-3.74;76.51;101355.16;5091952;28;20048;-68
2022/01/26 13:36:34;;;;;;;18.92;9.13;;;;;;;-3.95;77.26;101330.75;5091866;28;20046;-69
2022/01/26 13:39:14;;;;;;;12.48;8.02;;;;;;;-3.98;78.11;101324.81;5092008;28;20036;-68
2022/01/26 13:59:49;;;;;;;23.52;11.60;;;;;;;-4.26;78.80;101294.63;5095679;28;20071;-67
2022/01/26 14:02:15;;;;;;;18.10;10.23;;;;;;;-4.20;78.83;101294.38;5095331;28;20098;-63
2022/01/26 14:04:42;;;;;;;21.37;9.93;;;;;;;-4.07;78.25;101308.63;5094712;28;20494;-65
2022/01/26 14:07:08;;;;;;;28.00;11.50;;;;;;;-4.22;78.83;101285.78;5095082;28;20216;-70
2022/01/26 14:09:36;;;;;;;17.95;10.48;;;;;;;-4.05;79.00;101316.38;5095004;28;20043;-67
2022/01/26 14:12:02;;;;;;;22.33;11.05;;;;;;;-4.22;79.33;101300.53;5094922;28;20063;-65
2022/01/26 14:14:41;;;;;;;21.60;10.63;;;;;;;-4.20;79.33;101309.16;5095083;28;20043;-68
2022/01/26 14:17:14;;;;;;;;;;;;;;;-4.15;78.97;101302.00;5095302;28;20032;-63
2022/01/26 14:27:51;;;;;;;19.02;9.35;;;;;;;-4.30;79.79;101273.97;5094927;28;20489;-66
2022/01/26 15:34:20;;;;;;;10.43;7.70;;;;;;;-4.44;79.43;101230.25;5093192;28;20131;-68
2022/01/26 15:45:03;;;;;;;14.85;8.52;;;;;;;-4.24;79.25;101219.97;5093199;28;20031;-63
2022/01/26 15:50:42;;;;;;;15.10;8.38;;;;;;;-4.37;79.08;101203.13;5093613;28;20040;-60
2022/01/26 15:53:23;;;;;;;13.77;9.57;;;;;;;-4.32;79.07;101208.19;5093294;28;20082;-63